Time;durP1;ratioP1;P1;durP2;ratioP2;P2;SDS_P1;SDS_P2;PMS_P1;PMS_P2;Temp;Humidity;BMP_temperature;BMP_pressure;BME280_temperature;BME280_humidity;BME280_pressure;Samples;Min_cycle;Max_cycle;Signal;HPM_P1;HPM_P2
2022/01/20 00:27:22;;;;;;;19.75;11.73;;;;;;;7.96;51.54;99314.16;2127717;91;25912;-79
2022/01/20 00:31:15;;;;;;;;;;;;;;;7.96;51.46;99303.34;2113679;93;25493;-79
2022/01/20 00:38:29;;;;;;;15.78;11.28;;;;;;;7.95;51.29;99288.62;2111163;93;25725;-78
2022/01/20 00:41:59;;;;;;;16.30;11.08;;;;;;;7.97;51.21;99287.38;2110976;93;25850;-78
2022/01/20 00:45:29;;;;;;;14.93;10.90;;;;;;;7.95;51.16;99282.57;2148435;90;25856;-79
2022/01/20 00:48:56;;;;;;;17.20;10.48;;;;;;;7.96;51.11;99268.73;2180644;90;25861;-77
2022/01/20 00:52:35;;;;;;;19.67;11.28;;;;;;;7.98;51.02;99261.86;2182663;90;25789;-77
2022/01/20 00:56:19;;;;;;;15.75;10.50;;;;;;;7.98;50.98;99251.05;2116350;92;25839;-77
2022/01/20 00:59:59;;;;;;;15.10;10.98;;;;;;;7.99;50.95;99245.44;2022961;96;25846;-76
2022/01/20 01:03:19;;;;;;;13.65;10.75;;;;;;;8.01;50.87;99245.05;2039225;97;25668;-76
2022/01/20 01:10:29;;;;;;;12.63;9.98;;;;;;;8.04;50.77;99234.71;2105334;91;26124;-77
2022/01/20 01:14:28;;;;;;;;;;;;;;;;;;;;;
2022/01/20 01:21:45;;;;;;;16.97;10.35;;;;;;;8.05;50.64;99213.09;2123318;92;25723;-77
2022/01/20 01:25:06;;;;;;;14.80;10.23;;;;;;;8.07;50.62;99211.83;2152225;87;25880;-76
2022/01/20 01:28:35;;;;;;;13.75;10.63;;;;;;;8.09;50.57;99203.63;2150628;92;25802;-77
2022/01/20 01:32:01;;;;;;;15.13;10.60;;;;;;;8.11;50.55;99201.94;2195009;87;25755;-76
2022/01/20 01:35:33;;;;;;;14.68;10.58;;;;;;;8.11;50.52;99185.93;2181961;89;25896;-77
2022/01/20 01:39:02;;;;;;;13.28;10.25;;;;;;;8.13;50.46;99193.30;2178070;87;25449;-77
2022/01/20 01:42:40;;;;;;;13.80;10.78;;;;;;;8.15;50.42;99175.16;2182113;89;25803;-77
2022/01/20 01:45:53;;;;;;;16.87;10.20;;;;;;;8.16;50.38;99166.09;2179836;89;25677;-77
2022/01/20 01:49:21;;;;;;;13.65;10.13;;;;;;;8.15;50.34;99156.99;2182199;90;25721;-77
2022/01/20 01:52:44;;;;;;;16.75;10.28;;;;;;;8.16;50.31;99146.62;2182391;89;25959;-76
2022/01/20 01:56:07;;;;;;;16.13;10.77;;;;;;;8.16;50.26;99135.36;2182235;90;27094;-77
2022/01/20 01:59:29;;;;;;;15.55;10.70;;;;;;;8.16;50.23;99131.47;2181624;89;25784;-78
2022/01/20 02:03:01;;;;;;;13.03;10.25;;;;;;;8.17;50.19;99138.43;2181783;89;25716;-79
2022/01/20 02:22:02;;;;;;;16.77;11.38;;;;;;;8.13;50.30;99098.98;2370155;83;25681;-77
2022/01/20 02:25:29;;;;;;;16.87;11.38;;;;;;;8.12;50.34;99103.30;2371622;83;25610;-77
2022/01/20 02:28:50;;;;;;;15.93;11.48;;;;;;;8.12;50.36;99093.35;2371239;83;25725;-77
2022/01/20 02:32:18;;;;;;;17.02;11.18;;;;;;;8.12;50.39;99110.22;2371152;83;25598;-77
2022/01/20 02:35:53;;;;;;;17.70;12.15;;;;;;;8.10;50.43;99071.69;2371549;83;25625;-77
2022/01/20 02:46:44;;;;;;;15.45;11.22;;;;;;;8.08;50.61;99057.41;2367517;83;25632;-78
2022/01/20 02:50:06;;;;;;;14.68;10.53;;;;;;;8.05;50.66;99058.23;2371447;83;25716;-78
2022/01/20 02:53:28;;;;;;;15.00;11.15;;;;;;;8.07;50.71;99055.67;2371116;83;25652;-77
2022/01/20 02:57:12;;;;;;;17.73;11.27;;;;;;;8.05;50.75;99037.47;2371827;82;25597;-78
2022/01/20 03:04:22;;;;;;;17.85;11.48;;;;;;;8.04;50.88;99018.87;2254621;86;25782;-78
2022/01/20 03:08:03;;;;;;;19.75;11.30;;;;;;;8.04;50.92;99023.19;2298540;86;25719;-76
2022/01/20 03:11:27;;;;;;;13.65;11.25;;;;;;;8.02;50.99;99004.13;2272222;86;25898;-78
2022/01/20 03:18:40;;;;;;;15.28;10.38;;;;;;;8.01;51.09;98994.61;2135145;91;25839;-78
2022/01/20 03:22:03;;;;;;;19.17;11.08;;;;;;;7.98;51.15;98980.30;2134191;92;25781;-78
2022/01/20 03:25:34;;;;;;;15.32;10.03;;;;;;;7.97;51.20;98988.94;2115340;92;25741;-78
2022/01/20 03:32:46;;;;;;;12.20;10.05;;;;;;;7.96;51.31;98985.45;2018149;97;25842;-77
2022/01/20 03:36:08;;;;;;;16.48;11.63;;;;;;;7.95;51.36;98977.23;2028508;97;25752;-76
2022/01/20 03:39:38;;;;;;;14.03;10.70;;;;;;;7.96;51.41;98978.95;2019110;98;25799;-75
2022/01/20 03:42:58;;;;;;;12.47;10.80;;;;;;;7.94;51.46;98978.09;2023639;97;25729;-76
2022/01/20 03:46:25;;;;;;;11.05;9.78;;;;;;;7.80;51.49;98967.55;2023657;97;25682;-75
2022/01/20 03:53:23;;;;;;;11.22;10.10;;;;;;;7.93;51.63;98971.17;2044316;96;25890;-76
2022/01/20 03:56:48;;;;;;;10.50;9.50;;;;;;;7.93;51.67;98963.78;1977172;98;26153;-76
2022/01/20 04:00:27;;;;;;;11.55;9.85;;;;;;;7.94;51.72;98962.95;1997679;96;25823;-77
2022/01/20 04:03:52;;;;;;;12.93;9.93;;;;;;;7.94;51.78;98965.55;1983595;98;25726;-77
2022/01/20 04:07:44;;;;;;;12.45;8.98;;;;;;;7.94;51.82;98946.95;2031051;92;25888;-77
2022/01/20 04:11:31;;;;;;;8.53;7.72;;;;;;;7.94;51.85;98958.63;2117803;92;25736;-76
2022/01/20 04:15:07;;;;;;;10.98;9.35;;;;;;;7.96;51.88;98939.17;1960290;99;25872;-77
2022/01/20 04:18:30;;;;;;;10.63;8.57;;;;;;;7.97;51.90;98944.83;1905124;102;25851;-78
2022/01/20 04:21:53;;;;;;;10.10;8.58;;;;;;;7.97;51.94;98942.23;1940086;100;25754;-78
2022/01/20 04:25:25;;;;;;;12.85;8.25;;;;;;;7.96;51.96;98946.52;1939996;98;25923;-78
2022/01/20 04:29:07;;;;;;;8.05;7.25;;;;;;;7.97;52.00;98948.29;1941900;100;26090;-78
2022/01/20 04:32:27;;;;;;;9.05;7.20;;;;;;;7.97;52.03;98935.75;1944133;101;25776;-78
2022/01/20 04:36:06;;;;;;;8.23;7.27;;;;;;;7.95;52.08;98930.52;1943932;101;25826;-78
2022/01/20 04:39:30;;;;;;;10.23;7.12;;;;;;;7.96;52.11;98950.41;1943771;101;26428;-77
2022/01/20 04:42:54;;;;;;;7.62;6.92;;;;;;;7.96;52.17;98956.04;1943549;101;25848;-77
2022/01/20 04:46:28;;;;;;;9.35;7.37;;;;;;;7.96;52.18;98929.66;1965237;100;25982;-76
2022/01/20 04:57:21;;;;;;;7.58;6.87;;;;;;;8.00;52.27;98924.10;2199245;89;26386;-76
2022/01/20 05:00:45;;;;;;;6.90;6.30;;;;;;;7.99;52.28;98914.55;2201400;89;25929;-78
2022/01/20 05:04:33;;;;;;;7.72;6.95;;;;;;;8.01;52.32;98925.41;2201665;89;25282;-77
2022/01/20 05:08:01;;;;;;;7.25;6.58;;;;;;;8.01;52.35;98922.81;2196807;88;25972;-77
2022/01/20 05:11:22;;;;;;;6.95;6.40;;;;;;;8.03;52.37;98908.53;2201383;89;25771;-77
2022/01/20 05:14:54;;;;;;;7.00;6.40;;;;;;;8.04;52.38;98911.59;2201705;88;25755;-77
2022/01/20 05:18:52;;;;;;;6.78;6.17;;;;;;;8.03;52.41;98902.95;2307124;82;25759;-78
2022/01/20 05:22:21;;;;;;;9.65;6.62;;;;;;;8.04;52.41;98894.73;2403026;82;25640;-77
2022/01/20 05:25:49;;;;;;;6.90;6.35;;;;;;;8.05;52.46;98897.32;2404463;80;25565;-76
2022/01/20 05:29:13;;;;;;;7.10;6.40;;;;;;;8.07;52.47;98895.19;2404790;82;25612;-77
2022/01/20 05:32:45;;;;;;;6.80;6.30;;;;;;;8.08;52.49;98889.14;2404973;81;25648;-77
2022/01/20 05:36:06;;;;;;;6.40;5.90;;;;;;;8.09;52.52;98884.38;2402212;82;25643;-77
2022/01/20 05:39:27;;;;;;;6.72;6.12;;;;;;;8.09;52.51;98882.64;2405149;82;25655;-77
2022/01/20 05:42:51;;;;;;;7.00;6.40;;;;;;;8.12;52.54;98876.62;2405384;82;25693;-77
2022/01/20 05:46:17;;;;;;;6.78;6.08;;;;;;;8.12;52.53;98877.92;2399870;82;25721;-77
2022/01/20 05:49:39;;;;;;;7.10;6.47;;;;;;;8.12;52.56;98878.79;2373773;82;25700;-77
2022/01/20 05:53:02;;;;;;;6.78;6.22;;;;;;;8.14;52.58;98877.09;2404780;82;25511;-77
2022/01/20 05:56:23;;;;;;;7.15;6.45;;;;;;;8.16;52.57;98937.66;2405514;82;25143;-77
2022/01/20 05:59:44;;;;;;;6.20;5.73;;;;;;;8.18;52.58;98915.62;2405457;81;25696;-78
2022/01/20 06:06:47;;;;;;;8.58;6.08;;;;;;;8.18;52.56;98937.25;2410012;80;25625;-78
2022/01/20 06:10:16;;;;;;;6.55;5.00;;;;;;;8.18;52.53;98930.77;2374115;80;25766;-78
2022/01/20 06:13:37;;;;;;;5.28;4.75;;;;;;;8.17;52.49;98928.17;2328293;85;26318;-78
2022/01/20 06:17:00;;;;;;;5.20;4.70;;;;;;;8.16;52.45;98929.00;2328156;83;25416;-78
2022/01/20 06:20:21;;;;;;;4.95;4.47;;;;;;;8.16;52.39;98928.57;2304810;85;25811;-78
2022/01/20 06:23:43;;;;;;;8.85;4.28;;;;;;;8.15;52.33;98922.08;2305262;85;25708;-78
2022/01/20 06:27:04;;;;;;;5.10;4.20;;;;;;;8.15;52.29;98925.97;2328595;85;25806;-79
2022/01/20 06:30:25;;;;;;;6.47;3.98;;;;;;;8.15;52.24;98928.57;2329142;82;26300;-78
2022/01/20 06:33:47;;;;;;;5.53;3.72;;;;;;;8.15;52.20;98924.67;2328640;85;25634;-78
2022/01/20 06:37:30;;;;;;;;;;;;;;;;;;;;;
2022/01/20 06:40:45;;;;;;;3.87;3.00;;;;;;;8.12;52.08;98914.26;2326170;83;25718;-78
2022/01/20 06:44:21;;;;;;;4.70;2.87;;;;;;;8.12;52.03;98913.83;2324848;83;25910;-78
2022/01/20 06:47:44;;;;;;;4.58;2.67;;;;;;;8.10;52.00;98900.38;2324600;85;25747;-76
2022/01/20 06:51:05;;;;;;;3.83;3.30;;;;;;;8.10;51.99;98905.58;2283158;85;25916;-76
2022/01/20 06:54:32;;;;;;;3.80;2.90;;;;;;;8.10;51.96;98903.87;2305417;85;27238;-78
2022/01/20 06:58:03;;;;;;;2.85;2.12;;;;;;;8.10;51.93;98907.77;2328757;85;26604;-77
2022/01/20 07:01:24;;;;;;;3.30;2.52;;;;;;;8.10;51.89;98903.87;2304827;85;25783;-76
2022/01/20 07:04:47;;;;;;;4.60;2.22;;;;;;;8.11;51.86;98909.50;2305190;85;25740;-76
2022/01/20 07:08:10;;;;;;;2.83;2.12;;;;;;;8.10;51.83;98910.37;2247044;86;25701;-76
2022/01/20 07:11:31;;;;;;;4.10;2.07;;;;;;;8.11;51.80;98903.45;2329145;84;26098;-76
2022/01/20 07:14:57;;;;;;;4.33;2.12;;;;;;;8.12;51.77;98897.39;2356772;82;25653;-77
2022/01/20 07:18:21;;;;;;;3.27;1.95;;;;;;;8.11;51.75;98910.80;2356468;83;25709;-77
2022/01/20 07:21:51;;;;;;;4.40;2.47;;;;;;;8.11;51.73;98919.88;2306171;83;25670;-78
2022/01/20 07:29:29;;;;;;;3.17;1.75;;;;;;;8.16;51.70;98906.94;2315421;84;25764;-77
2022/01/20 07:33:03;;;;;;;3.22;1.92;;;;;;;8.19;51.66;98892.26;2309524;84;25831;-77
2022/01/20 07:36:23;;;;;;;1.60;1.42;;;;;;;8.23;51.61;98889.27;2308667;84;25638;-79
2022/01/20 07:40:01;;;;;;;2.85;1.57;;;;;;;8.28;51.59;98887.16;2309965;85;25572;-77
2022/01/20 07:43:30;;;;;;;2.42;1.80;;;;;;;8.34;51.49;98896.73;2304472;85;25776;-77
2022/01/20 07:50:30;;;;;;;4.47;1.85;;;;;;;8.40;51.33;98895.50;2095054;92;25988;-78
2022/01/20 07:53:54;;;;;;;5.80;2.02;;;;;;;8.50;51.26;98892.55;2127363;91;26108;-79
2022/01/20 07:57:15;;;;;;;4.92;2.75;;;;;;;8.72;51.20;98897.50;2075138;93;25729;-78
2022/01/20 08:00:38;;;;;;;2.77;2.27;;;;;;;9.29;51.13;98884.84;2105262;92;25840;-77
2022/01/20 08:04:00;;;;;;;4.17;3.40;;;;;;;11.86;49.46;98886.53;2106688;93;25662;-78
2022/01/20 08:07:23;;;;;;;3.40;3.08;;;;;;;13.80;47.13;98871.61;2120161;92;25757;-79
2022/01/20 08:10:44;;;;;;;4.00;3.30;;;;;;;15.47;44.98;98876.69;2133035;92;25804;-78
2022/01/20 08:14:05;;;;;;;5.03;4.62;;;;;;;16.68;42.83;98887.58;2132928;91;25869;-80
2022/01/20 08:17:26;;;;;;;7.60;5.97;;;;;;;17.55;41.48;98898.86;2133179;92;30954;-77
2022/01/20 08:20:48;;;;;;;2.30;1.60;;;;;;;18.83;39.84;98892.31;2196967;86;25812;-79
2022/01/20 08:24:12;;;;;;;2.58;1.55;;;;;;;19.76;37.93;98887.27;2224081;86;25838;-79
2022/01/20 08:27:33;;;;;;;13.05;12.05;;;;;;;18.74;37.12;98877.23;2320796;85;25778;-78
2022/01/20 08:30:54;;;;;;;5.17;4.70;;;;;;;18.12;37.44;98865.11;2320765;85;25658;-79
2022/01/20 08:34:20;;;;;;;7.00;6.37;;;;;;;19.48;36.70;98867.58;2297513;84;25956;-80
2022/01/20 08:37:49;;;;;;;6.42;6.03;;;;;;;19.73;35.78;98865.76;2237377;88;25936;-77
2022/01/20 08:41:09;;;;;;;4.62;4.28;;;;;;;20.66;35.40;98866.98;2193432;89;25723;-78
2022/01/20 08:44:30;;;;;;;4.35;3.95;;;;;;;22.20;34.06;98849.05;2223167;88;26258;-77
2022/01/20 08:47:56;;;;;;;3.73;3.43;;;;;;;24.81;31.24;98855.97;2230455;87;25683;-78
2022/01/20 08:51:19;;;;;;;3.15;2.80;;;;;;;24.81;31.24;98855.97;2233545;87;25742;-77
2022/01/20 08:54:48;;;;;;;4.03;2.67;;;;;;;25.62;30.32;98864.39;2232692;87;25814;-78
2022/01/20 08:58:11;;;;;;;3.40;2.22;;;;;;;25.48;29.48;98865.70;2230375;87;25749;-78
2022/01/20 09:01:42;;;;;;;4.17;2.27;;;;;;;25.51;29.01;98882.86;2233603;87;25772;-76
2022/01/20 09:05:14;;;;;;;6.10;2.22;;;;;;;24.33;29.04;98884.45;2232382;87;25752;-78
2022/01/20 09:08:37;;;;;;;3.42;1.80;;;;;;;23.25;29.35;98870.78;2248230;86;25715;-78
2022/01/20 09:15:27;;;;;;;3.35;2.10;;;;;;;21.96;30.07;98869.16;2249210;86;25656;-77
2022/01/20 09:15:45;;;;;;;3.72;2.52;;;;;;;20.87;30.77;98877.12;2229432;86;25807;-77
2022/01/20 09:24:00;;;;;;;2.72;2.22;;;;;;;19.15;32.49;98869.66;2196262;88;26239;-81
2022/01/20 09:31:58;;;;;;;2.75;1.77;;;;;;;17.56;34.25;98850.09;2168829;89;25908;-82
2022/01/20 09:35:57;;;;;;;3.37;1.82;;;;;;;16.86;35.14;98856.86;2170492;89;25696;-80
2022/01/20 09:39:42;;;;;;;;;;;;;;;;;;;;;
2022/01/20 09:43:17;;;;;;;5.25;2.33;;;;;;;15.82;36.52;98833.06;2173517;89;25924;-78
2022/01/20 09:47:00;;;;;;;3.83;2.25;;;;;;;15.34;37.15;98827.94;2173749;89;25694;-79
2022/01/20 09:50:53;;;;;;;4.60;2.10;;;;;;;14.93;37.74;98827.45;2169761;89;25796;-80
2022/01/20 09:54:23;;;;;;;3.42;1.72;;;;;;;14.50;38.25;98817.70;2138277;91;26005;-79
2022/01/20 09:57:48;;;;;;;3.47;1.92;;;;;;;14.13;38.78;98817.84;2170347;91;25923;-80
2022/01/20 10:01:17;;;;;;;4.25;2.25;;;;;;;13.84;39.17;98831.41;2170784;90;25991;-83
2022/01/20 10:04:54;;;;;;;5.90;2.33;;;;;;;13.58;39.39;98815.20;2206179;88;25656;-82
2022/01/20 10:08:27;;;;;;;2.58;1.60;;;;;;;13.33;39.75;98816.83;2207685;89;25784;-82
2022/01/20 10:12:46;;;;;;;;;;;;;;;;;;;;;
2022/01/20 10:16:41;;;;;;;4.70;2.35;;;;;;;13.79;39.94;98825.80;2190920;89;25704;-82
2022/01/20 10:20:25;;;;;;;4.20;1.67;;;;;;;13.75;39.96;98828.05;2142484;90;25740;-82
2022/01/20 10:29:08;;;;;;;;;;;;;;;;;;;;;
2022/01/20 10:32:50;;;;;;;4.10;1.47;;;;;;;14.56;46.45;98825.04;2245210;86;25677;-81
2022/01/20 10:36:27;;;;;;;7.12;1.80;;;;;;;15.40;45.18;98816.45;2259825;84;25902;-80
2022/01/20 10:40:26;;;;;;;6.03;1.77;;;;;;;15.31;40.72;98813.11;2099990;93;32377;-82
2022/01/20 10:44:25;;;;;;;;;;;;;;;;;;;;;
2022/01/20 10:48:07;;;;;;;5.00;1.92;;;;;;;13.99;37.78;98794.94;2100537;91;25722;-77
2022/01/20 10:51:49;;;;;;;3.65;1.77;;;;;;;13.82;36.98;98782.55;2100166;92;25872;-79
2022/01/20 10:55:45;;;;;;;8.88;2.12;;;;;;;13.78;36.20;98783.48;2093990;93;25799;-78
2022/01/20 11:03:10;;;;;;;5.95;1.95;;;;;;;13.19;35.23;98796.01;2011327;98;25446;-81
2022/01/20 11:06:36;;;;;;;;;;;;;;;12.81;35.01;98769.45;2027925;96;26024;-79
2022/01/20 11:10:19;;;;;;;4.53;2.33;;;;;;;12.44;34.83;98768.08;2004444;97;25767;-80
2022/01/20 11:13:46;;;;;;;8.50;1.98;;;;;;;12.01;34.75;98751.52;2002706;94;25753;-81
2022/01/20 11:21:44;;;;;;;;;;;;;;;;;;;;;
2022/01/20 11:25:42;;;;;;;;;;;;;;;;;;;;;
2022/01/20 11:34:03;;;;;;;3.85;1.80;;;;;;;11.25;35.36;98778.08;1999088;97;25791;-81
2022/01/20 11:37:35;;;;;;;2.15;1.20;;;;;;;10.98;35.63;98780.37;1964613;98;26180;-79
2022/01/20 11:41:03;;;;;;;3.22;1.07;;;;;;;10.76;35.65;98797.80;1990438;98;25864;-82
2022/01/20 11:44:31;;;;;;;7.10;1.07;;;;;;;10.56;35.75;98804.36;1981976;99;25995;-81
2022/01/20 11:48:33;;;;;;;1.67;0.70;;;;;;;10.36;36.01;98809.59;1879878;103;26013;-79
2022/01/20 11:52:43;;;;;;;3.55;1.05;;;;;;;10.11;36.56;98813.47;1890447;101;26034;-79
2022/01/20 11:56:15;;;;;;;4.58;1.00;;;;;;;10.05;37.14;98829.09;1949152;99;25867;-79
2022/01/20 12:00:01;;;;;;;3.67;1.82;;;;;;;9.97;37.64;98820.86;1962206;99;25909;-81
2022/01/20 12:03:58;;;;;;;;;;;;;;;;;;;;;
2022/01/20 12:07:36;;;;;;;4.12;0.90;;;;;;;9.71;38.26;98824.27;1967461;97;32692;-75
2022/01/20 12:11:12;;;;;;;2.17;0.60;;;;;;;9.55;38.56;98826.39;1957285;99;25838;-76
2022/01/20 12:14:52;;;;;;;2.65;1.20;;;;;;;9.38;38.76;98828.95;1944875;98;25770;-78
2022/01/20 12:18:18;;;;;;;2.83;0.80;;;;;;;9.34;39.12;98830.67;1945854;100;25891;-78
2022/01/20 12:21:56;;;;;;;3.40;2.08;;;;;;;9.47;39.38;98841.98;1997984;97;25840;-84
2022/01/20 12:25:36;;;;;;;2.12;0.80;;;;;;;9.54;39.68;98799.95;1968622;98;26154;-79
2022/01/20 12:29:28;;;;;;;3.15;1.30;;;;;;;9.54;39.68;98799.95;1992278;97;25877;-77
2022/01/20 12:33:34;;;;;;;;;;;;;;;;;;;;;
2022/01/20 12:37:14;;;;;;;12.88;1.92;;;;;;;9.39;38.45;98834.61;1944916;100;25833;-78
2022/01/20 12:41:04;;;;;;;3.83;2.35;;;;;;;9.20;38.15;98829.31;1944184;100;25812;-82
2022/01/20 12:44:49;;;;;;;7.22;1.85;;;;;;;9.25;37.85;98833.26;1928691;100;26071;-78
2022/01/20 12:48:23;;;;;;;3.40;2.25;;;;;;;9.06;37.72;98827.09;1982334;95;26559;-77
2022/01/20 12:52:08;;;;;;;2.58;1.70;;;;;;;8.87;37.82;98833.92;2081600;93;25745;-76
2022/01/20 12:55:33;;;;;;;4.28;1.60;;;;;;;8.69;37.97;98824.30;2082291;95;25801;-79
2022/01/20 12:59:28;;;;;;;2.47;1.25;;;;;;;8.53;38.10;98823.75;2111000;90;25897;-81
2022/01/20 13:03:15;;;;;;;;;;;;;;;;;;;;;
2022/01/20 13:07:02;;;;;;;5.00;1.35;;;;;;;8.20;38.01;98835.61;2037074;95;25899;-77
2022/01/20 13:10:35;;;;;;;4.53;2.55;;;;;;;8.07;38.16;98829.02;2042490;96;25878;-78
2022/01/20 13:14:28;;;;;;;5.95;2.22;;;;;;;8.03;38.21;98827.69;2006611;97;25779;-76
2022/01/20 13:18:19;;;;;;;8.90;2.50;;;;;;;7.94;38.28;98825.00;2005694;94;25853;-78
2022/01/20 13:26:16;;;;;;;3.40;1.57;;;;;;;7.60;38.90;98844.98;1987041;96;25852;-83
2022/01/20 13:29:59;;;;;;;3.80;1.72;;;;;;;7.45;39.73;98844.37;2043574;95;25826;-79
2022/01/20 13:33:30;;;;;;;4.78;1.77;;;;;;;7.24;40.58;98859.25;2044680;95;25447;-78
2022/01/20 13:37:14;;;;;;;6.17;1.60;;;;;;;7.24;41.40;98856.66;2033337;95;25819;-79
2022/01/20 13:40:49;;;;;;;6.20;1.60;;;;;;;7.36;41.96;98868.48;2088750;93;25819;-78
2022/01/20 13:48:34;;;;;;;4.33;1.92;;;;;;;7.26;42.61;98870.52;2026078;96;25764;-77
2022/01/20 13:55:58;;;;;;;8.03;3.30;;;;;;;7.24;43.25;98852.34;1993431;97;25815;-78
2022/01/20 14:00:10;;;;;;;6.35;3.55;;;;;;;7.25;43.45;98846.29;1989618;98;25820;-78
2022/01/20 14:03:42;;;;;;;8.85;2.90;;;;;;;7.21;43.60;98850.14;1993432;97;25859;-78
2022/01/20 14:07:06;;;;;;;6.58;2.75;;;;;;;7.13;43.74;98833.64;1986693;97;25778;-79
2022/01/20 14:14:40;;;;;;;5.92;2.27;;;;;;;7.04;43.97;98858.98;1993418;97;25898;-78
2022/01/20 14:18:11;;;;;;;5.58;1.95;;;;;;;6.98;44.14;98862.36;1990054;96;25779;-77
2022/01/20 14:21:50;;;;;;;;;;;;;;;;;;;;;
2022/01/20 14:25:16;;;;;;;3.30;1.82;;;;;;;6.89;44.36;98903.70;1942507;99;25822;-79
2022/01/20 14:28:42;;;;;;;6.85;2.05;;;;;;;6.90;44.75;98908.02;1956717;94;25973;-78
2022/01/20 14:32:41;;;;;;;3.83;1.60;;;;;;;7.00;44.91;98893.05;1963051;99;26540;-77
2022/01/20 14:36:11;;;;;;;;;;;;;;;;;;;;;
2022/01/20 14:39:39;;;;;;;4.00;1.35;;;;;;;7.26;44.97;98902.48;1906126;103;26268;-81
2022/01/20 14:43:32;;;;;;;3.58;1.40;;;;;;;7.38;44.94;98895.70;1923612;102;25905;-79
2022/01/20 14:47:39;;;;;;;;;;;;;;;;;;;;;
2022/01/20 14:51:24;;;;;;;2.37;1.20;;;;;;;7.55;44.81;98892.45;2003053;95;25836;-78
2022/01/20 14:55:00;;;;;;;4.03;1.50;;;;;;;7.58;44.73;98905.46;2091988;93;25712;-79
2022/01/20 14:58:37;;;;;;;3.17;2.10;;;;;;;7.60;44.73;98905.50;2136999;91;25908;-79
2022/01/20 15:02:08;;;;;;;4.85;1.20;;;;;;;7.60;44.72;98893.83;2106947;92;25936;-80
2022/01/20 15:05:33;;;;;;;2.15;1.20;;;;;;;7.61;44.71;98906.36;2107214;88;25833;-78
2022/01/20 15:09:16;;;;;;;3.62;1.40;;;;;;;7.60;44.69;98899.45;2106371;92;25756;-79
2022/01/20 15:13:00;;;;;;;4.45;1.42;;;;;;;7.57;44.66;98906.75;2236970;87;25890;-79
2022/01/20 15:16:29;;;;;;;2.58;1.20;;;;;;;7.58;44.69;98913.24;2260020;87;25808;-76
2022/01/20 15:19:58;;;;;;;4.55;2.27;;;;;;;7.56;44.64;98917.56;2259222;86;25790;-78
2022/01/20 15:23:40;;;;;;;1.80;1.25;;;;;;;7.56;44.64;98916.27;2326246;83;25731;-79
2022/01/20 15:27:00;;;;;;;4.25;1.67;;;;;;;7.56;44.67;98923.17;2387360;81;25744;-78
2022/01/20 15:30:29;;;;;;;3.70;1.63;;;;;;;7.57;44.70;98930.09;2395383;80;26872;-79
2022/01/20 15:34:01;;;;;;;6.90;1.95;;;;;;;7.54;44.76;98943.88;2380964;82;25456;-78
2022/01/20 15:37:43;;;;;;;;;;;;;;;;;;;;;
2022/01/20 15:41:10;;;;;;;2.35;1.40;;;;;;;7.75;47.77;98932.89;2389791;82;25880;-78
2022/01/20 15:44:31;;;;;;;4.62;1.42;;;;;;;7.77;47.82;98926.01;2386207;80;25220;-78
2022/01/20 15:48:03;;;;;;;2.53;1.00;;;;;;;7.73;47.89;98913.87;2386327;81;26320;-78
2022/01/20 15:51:30;;;;;;;3.70;1.00;;;;;;;7.69;47.96;98926.76;2356946;83;25876;-77
2022/01/20 15:54:58;;;;;;;1.52;1.00;;;;;;;7.65;48.00;98928.88;2353947;84;25997;-76
2022/01/20 16:02:26;;;;;;;1.77;0.90;;;;;;;7.56;47.98;98937.01;2223095;87;25881;-78
2022/01/20 16:06:16;;;;;;;2.98;1.67;;;;;;;7.51;48.00;98941.68;2221586;87;25739;-79
2022/01/20 16:09:45;;;;;;;1.47;1.15;;;;;;;7.48;48.04;98937.31;2229543;87;26403;-76
2022/01/20 16:13:25;;;;;;;2.55;0.90;;;;;;;7.46;48.09;98955.89;2258577;87;25299;-79
2022/01/20 16:16:45;;;;;;;3.77;1.27;;;;;;;7.45;48.12;98957.16;2260108;86;25721;-79
2022/01/20 16:20:16;;;;;;;1.80;1.20;;;;;;;7.43;48.08;98957.14;2261920;86;25843;-81
2022/01/20 16:23:38;;;;;;;2.60;1.27;;;;;;;7.41;48.04;98958.83;2186517;90;26022;-79
2022/01/20 16:27:01;;;;;;;1.75;1.27;;;;;;;7.41;47.97;98960.56;2183298;89;26078;-79
2022/01/20 16:30:28;;;;;;;4.40;1.75;;;;;;;7.40;47.95;98957.53;2186306;89;25726;-78
2022/01/20 16:33:53;;;;;;;1.32;1.05;;;;;;;7.38;47.88;98957.92;2184382;89;25857;-79
2022/01/20 16:37:19;;;;;;;1.62;0.85;;;;;;;7.37;47.85;98949.71;2164599;90;25752;-78
2022/01/20 16:40:48;;;;;;;1.82;1.22;;;;;;;7.35;47.78;98952.27;2141003;91;25738;-79
2022/01/20 16:44:09;;;;;;;1.80;1.10;;;;;;;7.32;47.73;98966.48;2140495;91;25752;-80
2022/01/20 16:51:03;;;;;;;2.92;1.10;;;;;;;7.29;47.73;98981.59;2076900;94;25756;-79
2022/01/20 16:54:38;;;;;;;1.97;1.10;;;;;;;7.28;47.61;98995.80;2076761;95;25737;-80
2022/01/20 16:58:19;;;;;;;3.50;1.10;;;;;;;7.27;47.58;98991.05;2101715;93;25898;-80
2022/01/20 17:01:53;;;;;;;1.65;0.88;;;;;;;7.26;47.54;98994.93;2125520;92;25798;-80
2022/01/20 17:09:06;;;;;;;2.55;1.17;;;;;;;7.24;47.51;99008.28;1961890;99;25387;-76
2022/01/20 17:12:54;;;;;;;2.95;1.22;;;;;;;7.23;47.45;99013.02;1975223;97;25752;-78
2022/01/20 17:16:35;;;;;;;2.00;1.35;;;;;;;7.21;47.43;99024.65;1987726;99;25963;-79
2022/01/20 17:20:47;;;;;;;2.92;1.87;;;;;;;7.21;47.45;99036.74;2026727;96;25682;-81
2022/01/20 17:24:59;;;;;;;1.72;1.10;;;;;;;7.20;47.44;99031.98;2016250;96;25813;-80
2022/01/20 17:28:48;;;;;;;1.90;0.98;;;;;;;7.19;47.43;99038.03;1945420;100;25800;-82
2022/01/20 17:32:23;;;;;;;1.40;1.10;;;;;;;7.20;47.39;99033.71;1945369;100;25844;-81
2022/01/20 17:35:58;;;;;;;1.57;0.98;;;;;;;7.18;47.40;99047.92;1944318;99;25957;-80
2022/01/20 17:39:23;;;;;;;2.33;1.22;;;;;;;7.19;47.38;99053.58;1943316;100;26120;-79
2022/01/20 17:43:08;;;;;;;2.00;0.90;;;;;;;7.17;47.37;99069.52;1942731;100;25446;-80
2022/01/20 17:46:31;;;;;;;1.20;0.70;;;;;;;7.16;47.35;99074.26;1941896;100;25851;-79
2022/01/20 17:50:00;;;;;;;3.50;1.30;;;;;;;7.15;47.33;99081.56;1972237;99;25859;-80
2022/01/20 17:53:24;;;;;;;1.72;1.00;;;;;;;7.15;47.33;99087.17;1985621;97;26223;-80
2022/01/20 17:56:49;;;;;;;1.50;1.07;;;;;;;7.15;47.31;99074.22;2015752;97;25724;-79
2022/01/20 18:00:28;;;;;;;2.30;1.32;;;;;;;7.15;47.34;99084.58;2017838;94;25773;-78
2022/01/20 18:04:00;;;;;;;1.55;1.00;;;;;;;7.15;47.32;99081.99;1996134;94;26003;-81
2022/01/20 18:07:23;;;;;;;1.70;1.00;;;;;;;7.15;47.31;99075.52;2094478;93;26504;-79
2022/01/20 18:10:44;;;;;;;2.67;1.47;;;;;;;7.14;47.29;99086.73;2041644;95;25751;-80
2022/01/20 18:14:24;;;;;;;1.20;0.93;;;;;;;7.13;47.31;99100.55;2079404;93;25922;-79
2022/01/20 18:18:12;;;;;;;2.72;1.47;;;;;;;7.12;47.30;99099.69;2051705;96;25762;-80
2022/01/20 18:22:04;;;;;;;2.85;1.30;;;;;;;7.13;47.30;99104.02;2051494;95;25849;-79
2022/01/20 18:25:54;;;;;;;;;;;;;;;;;;;;;
2022/01/20 18:29:08;;;;;;;1.85;1.30;;;;;;;7.10;47.31;99110.01;2183241;89;25728;-80
2022/01/20 18:32:50;;;;;;;2.40;1.40;;;;;;;7.09;47.32;99116.05;2185887;89;26082;-80
2022/01/20 18:36:24;;;;;;;2.70;1.47;;;;;;;7.10;47.32;99113.03;2278110;85;25806;-80
2022/01/20 18:43:39;;;;;;;1.57;1.00;;;;;;;7.09;47.32;99129.43;2193965;88;25815;-80
2022/01/20 18:47:13;;;;;;;2.72;1.55;;;;;;;7.07;47.34;99126.80;2174988;89;25728;-80
2022/01/20 18:50:38;;;;;;;3.33;1.67;;;;;;;7.07;47.37;99121.61;2176498;90;25699;-81
2022/01/20 18:54:05;;;;;;;1.52;1.20;;;;;;;7.06;47.39;99126.36;2083658;93;25849;-80
2022/01/20 18:57:48;;;;;;;;;;;;;;;7.05;47.38;99128.91;1992852;97;25801;-80
2022/01/20 19:01:26;;;;;;;2.12;1.35;;;;;;;7.02;47.35;99142.70;1983667;97;25988;-79
2022/01/20 19:05:25;;;;;;;3.55;1.42;;;;;;;7.00;47.37;99143.09;1925542;100;25878;-79
2022/01/20 19:08:58;;;;;;;;;;;;;;;;;;;;;
2022/01/20 19:12:15;;;;;;;1.95;1.10;;;;;;;6.97;47.43;99150.80;1889834;102;25991;-79
2022/01/20 19:15:50;;;;;;;1.85;1.47;;;;;;;6.96;47.44;99145.61;1959346;100;25967;-83
2022/01/20 19:19:17;;;;;;;1.82;1.30;;;;;;;6.93;47.49;99146.41;1969675;99;26003;-79
2022/01/20 19:23:05;;;;;;;1.77;1.22;;;;;;;6.94;47.54;99158.94;1973704;98;25728;-78
2022/01/20 19:26:45;;;;;;;2.17;0.95;;;;;;;6.93;47.55;99148.14;1967760;98;26062;-77
2022/01/20 19:30:23;;;;;;;2.77;1.40;;;;;;;6.92;47.62;99153.74;2017714;94;25787;-77
2022/01/20 19:33:54;;;;;;;3.05;1.20;;;;;;;6.91;47.63;99148.52;2077552;91;26365;-76
2022/01/20 19:37:23;;;;;;;1.90;0.93;;;;;;;6.90;47.67;99147.65;2040712;95;25798;-77
2022/01/20 19:44:59;;;;;;;2.30;1.40;;;;;;;6.90;47.72;99161.89;2086334;92;25725;-77
2022/01/20 19:48:37;;;;;;;3.75;1.30;;;;;;;6.89;47.76;99164.05;2131581;91;26093;-78
2022/01/20 19:52:17;;;;;;;2.25;1.40;;;;;;;6.89;47.81;99168.36;2120375;91;26056;-78
2022/01/20 19:55:40;;;;;;;2.62;1.55;;;;;;;6.88;47.84;99169.18;2182615;89;25902;-78